Time;durP1;ratioP1;P1;durP2;ratioP2;P2;SDS_P1;SDS_P2;PMS_P1;PMS_P2;Temp;Humidity;BMP_temperature;BMP_pressure;BME280_temperature;BME280_humidity;BME280_pressure;Samples;Min_cycle;Max_cycle;Signal;HPM_P1;HPM_P2
2024/01/11 00:02:06;;;;;;;73.50;37.60;;;;;;;-5.54;81.85;101388.89;111295;241;38980;-67
2024/01/11 00:04:44;;;;;;;77.20;37.10;;;;;;;-5.61;81.57;101380.77;111239;241;38295;-67
2024/01/11 00:10:14;;;;;;;81.70;40.00;;;;;;;-5.80;81.03;101371.25;111267;241;38466;-67
2024/01/11 00:12:51;;;;;;;83.80;41.30;;;;;;;-5.92;81.03;101371.27;111239;241;38358;-67
2024/01/11 00:15:29;;;;;;;87.20;43.20;;;;;;;-6.02;80.84;101378.79;111270;241;38800;-67
2024/01/11 00:18:07;;;;;;;106.10;47.00;;;;;;;-6.13;80.75;101389.17;111243;241;39484;-66
2024/01/11 00:20:48;;;;;;;91.40;42.80;;;;;;;-6.23;80.82;101397.56;111245;241;38796;-67
2024/01/11 00:23:26;;;;;;;74.20;36.40;;;;;;;-6.28;80.93;101393.44;111239;241;38511;-68
2024/01/11 00:26:02;;;;;;;77.40;38.40;;;;;;;-6.30;80.90;101387.05;111269;241;38517;-67
2024/01/11 00:28:39;;;;;;;82.70;38.50;;;;;;;-6.30;80.98;101383.48;111244;241;38520;-67
2024/01/11 00:31:14;;;;;;;92.30;42.50;;;;;;;-6.30;81.13;101380.45;111298;241;38420;-68
2024/01/11 00:33:54;;;;;;;92.80;41.80;;;;;;;-6.29;81.23;101384.23;111239;241;38672;-68
2024/01/11 00:36:32;;;;;;;123.70;52.30;;;;;;;-6.30;81.29;101386.04;111261;241;38278;-67
2024/01/11 00:39:07;;;;;;;92.80;43.80;;;;;;;-6.30;81.41;101378.23;111270;241;38381;-67
2024/01/11 00:41:48;;;;;;;84.10;40.10;;;;;;;-6.31;81.55;101373.25;111132;241;176181;-66
2024/01/11 00:44:24;;;;;;;84.90;40.20;;;;;;;-6.36;81.36;101373.52;111257;241;38278;-65
2024/01/11 00:46:59;;;;;;;90.60;42.50;;;;;;;-6.41;81.31;101396.57;111309;241;38382;-65
2024/01/11 00:49:35;;;;;;;80.40;38.90;;;;;;;-6.46;81.32;101407.00;111232;241;38337;-67
2024/01/11 00:52:13;;;;;;;78.30;37.00;;;;;;;-6.51;81.29;101416.10;111246;241;38460;-66
2024/01/11 00:54:51;;;;;;;75.80;37.70;;;;;;;-6.48;81.58;101395.19;111203;241;39935;-65
2024/01/11 00:57:26;;;;;;;67.70;34.40;;;;;;;-6.40;81.74;101380.11;111204;241;38311;-66
2024/01/11 01:00:05;;;;;;;63.30;31.90;;;;;;;-6.32;82.03;101365.59;111271;241;38381;-66
2024/01/11 01:02:39;;;;;;;;;;;;;;;-6.26;82.05;101357.70;110564;241;922807;-66
2024/01/11 01:05:13;;;;;;;82.10;38.30;;;;;;;-6.22;82.25;101366.36;111179;241;176303;-66
2024/01/11 01:07:48;;;;;;;85.30;40.20;;;;;;;-6.19;82.21;101383.96;111271;241;39551;-65
2024/01/11 01:10:26;;;;;;;76.80;37.90;;;;;;;-6.19;82.07;101371.08;111276;241;38873;-65
2024/01/11 01:13:02;;;;;;;90.80;42.40;;;;;;;-6.16;82.06;101363.90;111218;241;38289;-65
2024/01/11 01:15:39;;;;;;;87.70;40.70;;;;;;;-6.14;82.22;101356.02;111215;241;38245;-66
2024/01/11 01:18:16;;;;;;;74.60;36.30;;;;;;;-6.15;82.10;101345.80;111264;241;38538;-66
2024/01/11 01:20:51;;;;;;;70.80;34.40;;;;;;;-6.16;81.95;101347.92;111256;241;38328;-65
2024/01/11 01:23:29;;;;;;;72.50;35.60;;;;;;;-6.14;82.04;101354.31;111247;241;38300;-65
2024/01/11 01:26:04;;;;;;;73.30;36.10;;;;;;;-6.05;82.06;101354.70;111295;241;39257;-65
2024/01/11 01:28:40;;;;;;;86.50;40.20;;;;;;;-6.01;81.92;101365.93;111269;241;38346;-65
2024/01/11 01:31:15;;;;;;;88.70;40.40;;;;;;;-5.98;81.98;101387.30;111262;241;38479;-66
2024/01/11 01:33:52;;;;;;;79.50;38.30;;;;;;;-5.93;82.27;101374.45;111258;241;39699;-66
2024/01/11 01:36:30;;;;;;;78.50;38.30;;;;;;;-5.89;82.28;101353.35;111268;241;38387;-65
2024/01/11 01:39:09;;;;;;;76.70;37.40;;;;;;;-5.87;82.20;101335.08;111257;241;38412;-65
2024/01/11 01:41:44;;;;;;;78.60;38.30;;;;;;;-5.90;82.02;101336.68;111117;241;176332;-66
2024/01/11 01:44:23;;;;;;;79.20;37.10;;;;;;;-5.94;81.89;101355.39;111278;241;38494;-66
2024/01/11 01:47:00;;;;;;;71.90;36.00;;;;;;;-5.92;82.06;101348.14;111287;241;38309;-67
2024/01/11 01:49:38;;;;;;;71.10;34.20;;;;;;;-5.87;82.11;101343.42;111251;241;38274;-67
2024/01/11 01:52:12;;;;;;;75.60;35.70;;;;;;;-5.80;82.05;101354.11;111273;241;38418;-66
2024/01/11 01:54:48;;;;;;;80.10;37.50;;;;;;;-5.76;82.04;101353.27;110549;241;921999;-66
2024/01/11 01:57:30;;;;;;;74.90;37.80;;;;;;;-5.70;82.20;101354.90;111236;241;38755;-66
2024/01/11 02:00:09;;;;;;;80.40;39.60;;;;;;;-5.64;82.06;101363.77;111253;241;38581;-66
2024/01/11 02:02:47;;;;;;;72.70;37.10;;;;;;;-5.66;81.93;101353.83;111253;241;38289;-67
2024/01/11 02:05:23;;;;;;;79.40;38.80;;;;;;;-5.68;82.06;101357.33;111259;241;38702;-66
2024/01/11 02:07:59;;;;;;;80.20;38.10;;;;;;;-5.73;81.80;101360.73;111253;241;38362;-66
2024/01/11 02:10:38;;;;;;;80.60;36.90;;;;;;;-5.76;81.94;101351.39;111290;241;38540;-66
2024/01/11 02:13:20;;;;;;;75.00;35.40;;;;;;;-5.77;81.97;101336.92;111263;241;38416;-66
2024/01/11 02:16:01;;;;;;;71.10;35.60;;;;;;;-5.75;82.05;101338.86;111256;241;38774;-67
2024/01/11 02:18:38;;;;;;;76.80;38.00;;;;;;;-5.71;82.17;101351.10;111239;241;38665;-66
2024/01/11 02:21:22;;;;;;;75.70;38.00;;;;;;;-5.65;82.18;101340.45;111230;241;38328;-66
2024/01/11 02:24:09;;;;;;;77.60;37.30;;;;;;;-5.63;82.24;101327.14;111215;241;39834;-66
2024/01/11 02:27:02;;;;;;;80.00;38.90;;;;;;;-5.60;82.41;101345.95;111153;241;176025;-67
2024/01/11 02:29:41;;;;;;;83.60;42.00;;;;;;;-5.62;82.11;101341.98;111255;241;37437;-67
2024/01/11 02:32:14;;;;;;;81.80;40.00;;;;;;;-5.69;82.11;101330.97;110553;241;922571;-66
2024/01/11 02:34:53;;;;;;;88.30;40.80;;;;;;;-5.72;82.27;101333.04;111242;241;38362;-67
2024/01/11 02:37:30;;;;;;;78.40;37.50;;;;;;;-5.74;82.32;101318.86;111236;241;38339;-67
2024/01/11 02:40:04;;;;;;;79.00;37.30;;;;;;;-5.73;82.54;101315.52;111253;241;38319;-67
2024/01/11 02:42:42;;;;;;;78.50;38.60;;;;;;;-5.69;82.45;101320.06;111247;241;38318;-67
2024/01/11 02:45:19;;;;;;;80.70;37.60;;;;;;;-5.66;82.54;101315.78;111278;241;38397;-67
2024/01/11 02:47:59;;;;;;;81.40;39.90;;;;;;;-5.61;82.69;101323.83;111157;241;177198;-67
2024/01/11 02:50:38;;;;;;;89.30;40.10;;;;;;;-5.56;82.96;101333.73;111265;241;38872;-67
2024/01/11 02:53:14;;;;;;;84.40;37.70;;;;;;;-5.54;82.92;101326.16;111203;241;38779;-67
2024/01/11 02:55:48;;;;;;;84.50;39.30;;;;;;;-5.53;82.95;101324.83;111248;241;38919;-67
2024/01/11 02:58:24;;;;;;;88.60;40.30;;;;;;;-5.52;83.11;101330.35;111256;241;38793;-66
2024/01/11 03:00:58;;;;;;;90.40;41.10;;;;;;;-5.52;82.85;101328.14;111303;241;38373;-65
2024/01/11 03:03:33;;;;;;;89.80;37.30;;;;;;;-5.52;83.03;101317.05;111241;241;38352;-65
2024/01/11 03:06:08;;;;;;;79.40;36.40;;;;;;;-5.52;82.88;101309.77;111234;241;38328;-65
2024/01/11 03:08:43;;;;;;;75.40;36.80;;;;;;;-5.50;82.89;101296.92;111250;241;38322;-66
2024/01/11 03:11:21;;;;;;;74.70;35.70;;;;;;;-5.47;82.88;101300.77;111266;241;38298;-66
2024/01/11 03:14:00;;;;;;;85.10;39.10;;;;;;;-5.41;83.29;101307.84;111246;241;40085;-66
2024/01/11 03:16:34;;;;;;;87.30;39.30;;;;;;;-5.35;83.39;101302.29;111160;241;176285;-66
2024/01/11 03:19:10;;;;;;;85.60;37.60;;;;;;;-5.28;83.67;101295.10;111140;241;173520;-67
2024/01/11 03:21:50;;;;;;;85.80;39.00;;;;;;;-5.26;83.45;101299.27;111268;241;38363;-67
2024/01/11 03:24:30;;;;;;;80.60;37.80;;;;;;;-5.29;83.08;101293.86;111265;241;38995;-67
2024/01/11 03:27:07;;;;;;;89.20;39.50;;;;;;;-5.36;83.10;101275.55;111260;241;38463;-65
2024/01/11 03:29:41;;;;;;;91.30;37.80;;;;;;;-5.41;83.23;101283.70;111271;241;38246;-66
2024/01/11 03:32:19;;;;;;;83.70;36.10;;;;;;;-5.39;83.28;101267.63;111258;241;39249;-66
2024/01/11 03:34:53;;;;;;;78.50;36.00;;;;;;;-5.35;83.35;101251.79;111266;240;38500;-64
2024/01/11 03:37:30;;;;;;;80.80;36.20;;;;;;;-5.30;83.63;101239.94;111273;241;38328;-66
2024/01/11 03:40:09;;;;;;;84.60;40.20;;;;;;;-5.25;83.78;101223.98;111227;241;38693;-66
2024/01/11 03:42:45;;;;;;;83.80;37.20;;;;;;;-5.20;83.76;101225.52;111174;241;38960;-65
2024/01/11 03:45:22;;;;;;;;;;;;;;;-5.21;83.56;101212.76;111250;241;38226;-66
2024/01/11 03:47:58;;;;;;;84.50;37.20;;;;;;;-5.22;83.73;101205.21;111239;242;38345;-67
2024/01/11 03:50:34;;;;;;;88.50;38.00;;;;;;;-5.27;83.59;101193.62;111251;242;38459;-67
2024/01/11 03:53:09;;;;;;;85.70;36.00;;;;;;;-5.32;83.65;101191.74;111257;242;38247;-67
2024/01/11 03:55:44;;;;;;;83.30;36.40;;;;;;;-5.33;83.66;101199.85;111256;242;38301;-67
2024/01/11 03:58:23;;;;;;;76.60;36.00;;;;;;;-5.33;83.72;101207.32;111101;242;173532;-66
2024/01/11 04:01:02;;;;;;;87.20;37.30;;;;;;;-5.30;83.65;101203.19;111197;242;38421;-66
2024/01/11 04:03:59;;;;;;;83.60;37.60;;;;;;;-5.28;83.78;101194.77;111200;242;38389;-67
2024/01/11 04:06:39;;;;;;;84.70;39.60;;;;;;;-5.27;83.83;101197.70;111221;242;38274;-66
2024/01/11 04:09:14;;;;;;;83.10;38.50;;;;;;;-5.26;83.89;101201.33;111261;242;38424;-67
2024/01/11 04:11:51;;;;;;;86.20;39.20;;;;;;;-5.27;83.86;101202.14;111240;242;38345;-66
2024/01/11 04:14:28;;;;;;;85.90;39.50;;;;;;;-5.30;83.61;101198.44;111211;242;38275;-66
2024/01/11 04:17:02;;;;;;;79.30;37.00;;;;;;;-5.32;83.72;101197.35;111116;242;38394;-66
2024/01/11 04:19:39;;;;;;;86.10;39.90;;;;;;;-5.34;83.67;101199.27;111236;242;38803;-66
2024/01/11 04:22:17;;;;;;;78.60;38.40;;;;;;;-5.34;83.53;101202.52;111285;242;38312;-67
2024/01/11 04:24:53;;;;;;;80.00;38.80;;;;;;;-5.29;83.65;101201.17;111242;242;38262;-67
2024/01/11 04:27:27;;;;;;;84.60;39.40;;;;;;;-5.24;83.65;101209.36;111278;242;38842;-66
2024/01/11 04:30:03;;;;;;;87.00;40.30;;;;;;;-5.21;83.63;101203.03;111236;242;38389;-66
2024/01/11 04:32:40;;;;;;;88.80;40.80;;;;;;;-5.19;83.82;101202.75;111270;242;39109;-66
2024/01/11 04:35:19;;;;;;;94.40;42.70;;;;;;;-5.17;83.87;101210.30;111235;242;38598;-66
2024/01/11 04:37:58;;;;;;;90.50;41.70;;;;;;;-5.15;84.06;101215.84;111222;242;39460;-67
2024/01/11 04:40:32;;;;;;;92.30;41.60;;;;;;;-5.15;83.90;101214.14;111282;242;38300;-66
2024/01/11 04:43:08;;;;;;;86.70;38.50;;;;;;;-5.17;83.88;101212.55;111265;242;38234;-66
2024/01/11 04:45:46;;;;;;;81.60;37.40;;;;;;;-5.17;83.85;101204.19;111249;242;38264;-66
2024/01/11 04:48:24;;;;;;;79.20;38.20;;;;;;;-5.17;83.96;101202.67;111232;242;38291;-66
2024/01/11 04:50:59;;;;;;;84.30;39.00;;;;;;;-5.11;84.19;101206.14;111235;242;38539;-66
2024/01/11 04:53:36;;;;;;;82.50;38.20;;;;;;;-5.07;84.26;101206.98;111246;242;38342;-66
2024/01/11 04:56:14;;;;;;;85.90;40.20;;;;;;;-5.04;84.26;101208.95;111250;242;38224;-67
2024/01/11 04:58:50;;;;;;;88.60;39.70;;;;;;;-5.04;84.15;101205.89;111231;242;38394;-67
2024/01/11 05:01:29;;;;;;;89.30;41.60;;;;;;;-5.07;84.20;101204.93;111225;242;38386;-66
2024/01/11 05:04:11;;;;;;;93.20;45.10;;;;;;;-5.08;84.33;101206.40;111294;242;38510;-66
2024/01/11 05:06:53;;;;;;;82.40;38.00;;;;;;;-5.09;84.45;101203.33;111130;242;200642;-67
2024/01/11 05:09:29;;;;;;;83.70;39.00;;;;;;;-5.09;84.39;101192.95;111213;242;38578;-66
2024/01/11 05:12:03;;;;;;;72.90;34.50;;;;;;;-5.08;84.50;101185.83;111209;242;38568;-67
2024/01/11 05:14:40;;;;;;;78.40;34.10;;;;;;;-5.04;84.51;101186.52;111261;242;38561;-66
2024/01/11 05:17:15;;;;;;;78.40;36.90;;;;;;;-5.00;84.53;101181.23;111243;242;38387;-66
2024/01/11 05:19:49;;;;;;;72.90;35.70;;;;;;;-4.98;84.62;101175.98;111237;242;38821;-66
2024/01/11 05:22:27;;;;;;;76.80;36.10;;;;;;;-4.97;84.54;101168.21;111259;242;38323;-66
2024/01/11 05:25:03;;;;;;;79.50;37.70;;;;;;;-4.95;84.63;101162.69;111094;242;176363;-67
2024/01/11 05:27:39;;;;;;;77.00;36.70;;;;;;;-4.95;84.64;101159.95;111240;242;38291;-67
2024/01/11 05:30:14;;;;;;;74.50;35.50;;;;;;;-4.93;84.75;101155.93;111265;242;38354;-67
2024/01/11 05:32:51;;;;;;;69.60;34.70;;;;;;;-4.96;84.54;101149.04;111247;242;38727;-67
2024/01/11 05:35:30;;;;;;;66.00;31.70;;;;;;;-4.96;84.50;101142.41;111255;242;38904;-67
2024/01/11 05:38:09;;;;;;;62.30;31.10;;;;;;;-4.96;84.37;101143.10;111216;242;38510;-67
2024/01/11 05:40:46;;;;;;;61.70;28.20;;;;;;;-4.90;84.70;101141.95;111240;242;39930;-67
2024/01/11 05:43:24;;;;;;;68.90;32.50;;;;;;;-4.83;84.81;101134.85;111222;242;38774;-66
2024/01/11 05:46:01;;;;;;;65.20;31.40;;;;;;;-4.79;84.76;101129.76;111220;242;38756;-66
2024/01/11 05:48:38;;;;;;;;;;;;;;;-4.77;84.76;101118.58;111250;242;39919;-65
2024/01/11 05:51:13;;;;;;;62.90;31.50;;;;;;;-4.81;84.61;101123.39;111262;242;40134;-67
2024/01/11 05:53:48;;;;;;;65.20;30.60;;;;;;;-4.84;84.55;101123.41;111273;242;38314;-66
2024/01/11 05:56:23;;;;;;;61.90;29.20;;;;;;;-4.88;84.46;101123.61;111283;242;38906;-67
2024/01/11 05:59:02;;;;;;;56.90;28.90;;;;;;;-4.89;84.60;101117.11;111251;242;39486;-66
2024/01/11 06:01:45;;;;;;;51.70;27.10;;;;;;;-4.87;84.54;101111.91;111266;242;39679;-66
2024/01/11 06:04:19;;;;;;;;;;;;;;;-4.82;84.72;101106.15;111244;242;39009;-67
2024/01/11 06:07:01;;;;;;;61.70;28.90;;;;;;;-4.80;84.75;101102.14;111261;242;38427;-66
2024/01/11 06:09:41;;;;;;;59.70;29.50;;;;;;;-4.78;84.81;101103.94;111128;242;40738;-66
2024/01/11 06:12:21;;;;;;;59.20;29.50;;;;;;;-4.78;84.76;101096.23;111251;242;38562;-67
2024/01/11 06:14:59;;;;;;;58.20;28.50;;;;;;;-4.80;84.76;101096.19;111211;242;38304;-66
2024/01/11 06:17:38;;;;;;;61.90;28.50;;;;;;;-4.81;84.76;101098.36;111224;242;38330;-66
2024/01/11 06:20:14;;;;;;;59.60;28.60;;;;;;;-4.83;84.77;101093.51;111198;242;38258;-66
2024/01/11 06:22:54;;;;;;;52.70;27.40;;;;;;;-4.82;84.69;101091.67;111240;242;38337;-66
2024/01/11 06:25:30;;;;;;;54.00;28.10;;;;;;;-4.82;84.70;101096.81;111211;242;39416;-66
2024/01/11 06:28:08;;;;;;;51.30;24.60;;;;;;;-4.78;84.72;101087.06;111268;242;38751;-66
2024/01/11 06:30:50;;;;;;;53.40;26.10;;;;;;;-4.73;84.85;101087.41;111135;242;176258;-65
2024/01/11 06:33:36;;;;;;;51.50;24.30;;;;;;;-4.68;84.88;101079.93;111218;242;38284;-66
2024/01/11 06:36:16;;;;;;;54.90;27.00;;;;;;;-4.67;84.98;101075.03;111244;242;38311;-66
2024/01/11 06:38:52;;;;;;;51.10;25.10;;;;;;;-4.65;84.80;101075.59;111229;242;38441;-66
2024/01/11 06:41:29;;;;;;;57.90;27.00;;;;;;;-4.68;84.73;101079.44;111276;242;38333;-66
2024/01/11 06:44:08;;;;;;;51.00;24.10;;;;;;;-4.71;84.67;101071.84;111250;242;38758;-67
2024/01/11 06:46:43;;;;;;;44.50;22.40;;;;;;;-4.72;84.79;101065.52;111173;242;38679;-67
2024/01/11 06:49:20;;;;;;;44.20;22.20;;;;;;;-4.70;84.86;101064.21;111229;242;38294;-67
2024/01/11 06:51:56;;;;;;;52.40;25.40;;;;;;;-4.66;84.90;101076.44;111228;242;38598;-67
2024/01/11 06:54:36;;;;;;;49.60;23.90;;;;;;;-4.60;85.18;101081.71;111242;242;38256;-67
2024/01/11 06:57:13;;;;;;;47.40;23.80;;;;;;;-4.56;85.23;101077.79;111270;242;40092;-67
2024/01/11 06:59:56;;;;;;;48.50;22.80;;;;;;;-4.51;85.30;101076.77;111204;242;38396;-67
2024/01/11 07:02:33;;;;;;;50.80;24.10;;;;;;;-4.48;85.49;101075.88;111252;242;38894;-67
2024/01/11 07:05:09;;;;;;;49.70;24.50;;;;;;;-4.47;85.58;101059.71;111241;242;38430;-67
2024/01/11 07:07:46;;;;;;;44.40;20.60;;;;;;;-4.50;85.38;101065.05;111235;242;38428;-67
2024/01/11 07:10:23;;;;;;;44.30;21.40;;;;;;;-4.48;85.38;101068.38;111267;242;38252;-67
2024/01/11 07:13:02;;;;;;;41.70;20.40;;;;;;;-4.43;85.57;101067.67;111079;242;41484;-67
2024/01/11 07:15:38;;;;;;;40.60;20.60;;;;;;;-4.35;85.86;101055.17;111164;242;189707;-67
2024/01/11 07:18:14;;;;;;;43.60;22.40;;;;;;;-4.30;85.69;101048.17;111222;242;38318;-68
2024/01/11 07:20:48;;;;;;;46.60;23.80;;;;;;;-4.28;85.83;101040.73;111252;242;38567;-68
2024/01/11 07:23:23;;;;;;;46.30;22.70;;;;;;;-4.26;85.81;101036.73;111216;242;38502;-66
2024/01/11 07:26:00;;;;;;;45.80;21.90;;;;;;;-4.26;85.90;101047.45;111201;242;38876;-67
2024/01/11 07:28:37;;;;;;;49.60;23.20;;;;;;;-4.25;86.08;101043.39;111217;242;39139;-66
2024/01/11 07:31:14;;;;;;;43.50;21.60;;;;;;;-4.24;86.22;101048.73;111247;242;38328;-66
2024/01/11 07:33:50;;;;;;;46.70;20.20;;;;;;;-4.22;86.26;101051.02;111221;242;38329;-66
2024/01/11 07:36:24;;;;;;;40.90;20.70;;;;;;;-4.14;86.48;101044.44;111244;242;39614;-66
2024/01/11 07:39:04;;;;;;;43.40;20.90;;;;;;;-4.06;86.66;101038.71;111284;242;39475;-66
2024/01/11 07:41:38;;;;;;;43.90;21.00;;;;;;;-3.98;86.78;101036.09;111236;242;38660;-66
2024/01/11 07:44:14;;;;;;;41.80;21.10;;;;;;;-3.92;86.88;101040.39;111251;242;38269;-69
2024/01/11 07:46:51;;;;;;;41.40;19.80;;;;;;;-3.87;86.74;101042.05;111250;242;39586;-66
2024/01/11 07:49:24;;;;;;;46.70;22.20;;;;;;;-3.87;86.71;101040.70;111278;242;39441;-66
2024/01/11 07:51:58;;;;;;;44.20;20.20;;;;;;;-3.89;86.63;101044.91;111246;242;38817;-67
2024/01/11 07:54:34;;;;;;;43.20;19.30;;;;;;;-3.87;86.74;101047.69;111211;242;39406;-67
2024/01/11 07:57:10;;;;;;;41.80;20.40;;;;;;;-3.83;86.69;101060.77;111252;242;38401;-66
2024/01/11 07:59:46;;;;;;;42.60;22.20;;;;;;;-3.81;86.55;101054.18;111237;242;38356;-66
2024/01/11 08:02:23;;;;;;;43.20;20.60;;;;;;;-3.77;86.67;101055.33;111276;242;38822;-67
2024/01/11 08:05:05;;;;;;;46.30;21.70;;;;;;;-3.71;86.85;101047.84;111204;242;38897;-68
2024/01/11 08:07:38;;;;;;;47.10;20.90;;;;;;;-3.66;86.87;101056.36;111196;242;39312;-68
2024/01/11 08:10:13;;;;;;;41.40;20.90;;;;;;;-3.63;86.96;101059.34;111259;242;38325;-67
2024/01/11 08:12:50;;;;;;;45.10;19.30;;;;;;;-3.65;86.95;101049.73;111207;242;39201;-68
2024/01/11 08:15:30;;;;;;;45.90;19.00;;;;;;;-3.64;86.90;101057.43;111234;242;38312;-68
2024/01/11 08:18:03;;;;;;;;;;;;;;;-3.60;86.93;101054.13;111220;242;38299;-67
2024/01/11 08:20:43;;;;;;;46.60;20.10;;;;;;;-3.55;87.22;101053.27;111268;242;38818;-67
2024/01/11 08:23:21;;;;;;;43.50;21.40;;;;;;;-3.52;87.38;101054.73;111260;242;38961;-67
2024/01/11 08:25:55;;;;;;;40.40;20.40;;;;;;;-3.47;87.45;101058.44;111243;242;38278;-67
2024/01/11 08:28:30;;;;;;;48.00;21.90;;;;;;;-3.45;87.53;101054.77;111249;242;38379;-67
2024/01/11 08:31:05;;;;;;;47.20;21.00;;;;;;;-3.42;87.69;101063.89;111269;242;38568;-67
2024/01/11 08:33:41;;;;;;;43.20;19.70;;;;;;;-3.45;87.58;101057.14;111107;242;176186;-67
2024/01/11 08:36:20;;;;;;;39.90;18.60;;;;;;;-3.43;87.58;101060.81;111265;242;38261;-67
2024/01/11 08:38:57;;;;;;;37.10;20.10;;;;;;;-3.37;87.47;101060.46;111239;242;38323;-66
2024/01/11 08:41:32;;;;;;;40.70;19.90;;;;;;;-3.29;87.64;101060.88;111253;242;39137;-65
2024/01/11 08:44:12;;;;;;;41.40;19.80;;;;;;;-3.22;87.68;101062.08;111245;242;38551;-66
2024/01/11 08:46:51;;;;;;;43.50;20.90;;;;;;;-3.21;87.49;101058.69;111152;242;176214;-66
2024/01/11 08:49:27;;;;;;;45.80;21.40;;;;;;;-3.18;87.60;101058.63;111253;242;39463;-66
2024/01/11 08:52:05;;;;;;;48.80;23.20;;;;;;;-3.17;87.65;101056.10;111268;242;38526;-66
2024/01/11 08:54:40;;;;;;;47.10;22.10;;;;;;;-3.19;87.55;101054.00;111263;242;38469;-66
2024/01/11 08:57:24;;;;;;;44.50;21.20;;;;;;;-3.19;87.57;101056.05;111241;242;38860;-67
2024/01/11 09:00:09;;;;;;;40.00;18.90;;;;;;;-3.16;87.77;101055.80;110562;242;931404;-67
2024/01/11 09:02:45;;;;;;;46.30;20.70;;;;;;;-3.08;87.92;101053.42;111099;242;176166;-66
2024/01/11 09:05:22;;;;;;;41.80;20.20;;;;;;;-3.01;87.95;101048.86;111231;242;38482;-66
2024/01/11 09:07:57;;;;;;;42.10;20.00;;;;;;;-2.94;88.00;101053.34;111260;242;39640;-66
2024/01/11 09:10:43;;;;;;;45.80;21.70;;;;;;;-2.91;87.81;101051.34;111223;242;38880;-66
2024/01/11 09:13:23;;;;;;;39.90;20.80;;;;;;;-2.91;87.80;101043.52;111233;242;38495;-66
2024/01/11 09:16:04;;;;;;;44.10;19.90;;;;;;;-2.90;87.89;101034.67;111283;242;38923;-66
2024/01/11 09:18:39;;;;;;;37.70;18.10;;;;;;;-2.90;87.87;101040.82;111218;242;38277;-67
2024/01/11 09:21:17;;;;;;;;;;;;;;;-2.90;87.79;101032.61;111274;242;38873;-66
2024/01/11 09:23:59;;;;;;;35.90;19.40;;;;;;;-2.86;88.13;101034.42;111233;242;39885;-67
2024/01/11 09:26:38;;;;;;;40.50;20.20;;;;;;;-2.77;88.16;101029.38;111141;242;175886;-65
2024/01/11 09:29:15;;;;;;;37.80;20.90;;;;;;;-2.68;88.27;101019.71;111243;242;39253;-66
2024/01/11 09:31:52;;;;;;;40.60;19.00;;;;;;;-2.58;88.34;101019.11;111129;242;173412;-67
2024/01/11 09:34:27;;;;;;;37.60;20.70;;;;;;;-2.53;88.20;101014.95;111209;242;38293;-67
2024/01/11 09:37:01;;;;;;;38.10;20.00;;;;;;;-2.51;88.19;101003.40;111277;242;39926;-66
2024/01/11 09:39:39;;;;;;;41.70;19.90;;;;;;;-2.47;88.23;101000.61;111253;242;38301;-66
2024/01/11 09:42:20;;;;;;;42.50;19.90;;;;;;;-2.41;88.08;101004.16;111091;242;176188;-67
2024/01/11 09:44:57;;;;;;;39.60;19.50;;;;;;;-2.35;87.88;100998.16;111251;242;38694;-66
2024/01/11 09:47:37;;;;;;;40.30;20.80;;;;;;;-2.29;87.89;100990.45;111243;242;39003;-66
2024/01/11 09:50:17;;;;;;;39.20;20.40;;;;;;;-2.25;87.74;100988.83;111252;242;38253;-66
2024/01/11 09:52:55;;;;;;;36.80;19.10;;;;;;;-2.20;87.83;100979.88;111223;242;38281;-67
2024/01/11 09:55:30;;;;;;;41.20;20.80;;;;;;;-2.20;87.69;100972.04;111211;242;40228;-65
2024/01/11 09:58:07;;;;;;;37.80;20.10;;;;;;;-2.22;87.54;100976.93;111228;242;39462;-66
2024/01/11 10:00:42;;;;;;;32.70;17.40;;;;;;;-2.23;87.14;100974.34;111264;242;39974;-68
2024/01/11 10:03:17;;;;;;;33.40;18.50;;;;;;;-2.24;87.19;100972.29;111206;242;38528;-68
2024/01/11 10:06:01;;;;;;;36.40;18.90;;;;;;;-2.21;87.16;100970.61;111252;242;38440;-67
2024/01/11 10:08:37;;;;;;;34.50;18.60;;;;;;;-2.18;87.32;100963.18;111247;242;39755;-68
2024/01/11 10:11:11;;;;;;;40.10;20.00;;;;;;;-2.14;87.39;100958.83;111279;242;38342;-68
2024/01/11 10:13:48;;;;;;;35.20;18.40;;;;;;;-2.13;87.42;100960.75;111263;242;39221;-66
2024/01/11 10:16:24;;;;;;;35.10;18.70;;;;;;;-2.11;87.46;100965.23;111140;242;176303;-66
2024/01/11 10:19:05;;;;;;;40.30;18.80;;;;;;;-2.10;87.50;100963.04;111213;242;38322;-67
2024/01/11 10:21:43;;;;;;;34.90;17.70;;;;;;;-2.08;87.50;100967.86;111256;242;38888;-66
2024/01/11 10:24:26;;;;;;;32.90;18.30;;;;;;;-2.04;87.47;100970.00;111239;242;38311;-67
2024/01/11 10:27:06;;;;;;;34.50;17.60;;;;;;;-2.01;87.48;100969.74;111265;242;38254;-66
2024/01/11 10:29:41;;;;;;;36.30;19.20;;;;;;;-1.98;87.59;100964.65;111249;242;38417;-66
2024/01/11 10:32:21;;;;;;;38.70;20.50;;;;;;;-1.95;87.67;100965.25;111257;242;38322;-67
2024/01/11 10:35:04;;;;;;;38.40;19.50;;;;;;;-1.96;87.53;100967.46;110510;242;930565;-67
2024/01/11 10:37:40;;;;;;;38.50;19.60;;;;;;;-1.93;87.76;100960.14;111126;242;38485;-67
2024/01/11 10:40:15;;;;;;;39.70;19.40;;;;;;;-1.91;87.74;100958.85;111277;242;38334;-67
2024/01/11 10:42:52;;;;;;;41.10;20.80;;;;;;;-1.86;87.79;100962.21;111121;242;176096;-67
2024/01/11 10:45:31;;;;;;;36.50;19.30;;;;;;;-1.79;87.85;100957.55;111294;242;38291;-68
2024/01/11 10:48:10;;;;;;;42.90;20.70;;;;;;;-1.72;88.00;100952.57;111235;242;38547;-67
2024/01/11 10:50:51;;;;;;;46.40;22.50;;;;;;;-1.66;88.04;100956.12;111262;242;38300;-66
2024/01/11 10:53:33;;;;;;;44.90;22.60;;;;;;;-1.60;88.36;100953.52;111226;242;38993;-66
2024/01/11 10:56:08;;;;;;;45.20;21.90;;;;;;;-1.53;88.44;100950.75;111262;242;38509;-66
2024/01/11 10:58:51;;;;;;;44.70;22.20;;;;;;;-1.50;88.43;100944.64;111204;242;38418;-67
2024/01/11 11:01:29;;;;;;;39.70;19.60;;;;;;;-1.52;88.23;100941.88;111298;242;38312;-67
2024/01/11 11:04:14;;;;;;;42.80;21.00;;;;;;;-1.50;88.16;100933.70;111252;242;38405;-66
2024/01/11 11:06:50;;;;;;;43.40;21.20;;;;;;;-1.47;88.23;100929.64;111266;242;38712;-66
2024/01/11 11:09:27;;;;;;;43.90;21.90;;;;;;;-1.43;88.47;100927.85;111229;242;38303;-67
2024/01/11 11:12:03;;;;;;;46.30;22.00;;;;;;;-1.38;88.48;100918.02;111244;242;38300;-67
2024/01/11 11:14:43;;;;;;;49.90;24.60;;;;;;;-1.39;88.31;100909.77;111249;242;38421;-67
2024/01/11 11:17:24;;;;;;;50.80;23.90;;;;;;;-1.39;88.47;100911.83;111250;242;38545;-66
2024/01/11 11:20:00;;;;;;;45.00;21.60;;;;;;;-1.37;88.42;100908.47;111217;242;39110;-66
2024/01/11 11:22:42;;;;;;;41.30;21.30;;;;;;;-1.31;88.65;100914.55;111121;242;38264;-66
2024/01/11 11:25:26;;;;;;;48.80;24.20;;;;;;;-1.25;88.59;100911.25;111254;242;39518;-66
2024/01/11 11:28:04;;;;;;;49.80;23.50;;;;;;;-1.20;88.65;100902.61;111270;242;38859;-66
2024/01/11 11:30:39;;;;;;;48.80;23.50;;;;;;;-1.15;88.70;100899.80;111261;242;38830;-66
2024/01/11 11:33:19;;;;;;;51.80;24.90;;;;;;;-1.14;88.51;100896.21;111205;242;38532;-68
2024/01/11 11:35:58;;;;;;;53.90;23.70;;;;;;;-1.14;88.66;100886.63;111238;242;38935;-68
2024/01/11 11:38:35;;;;;;;58.80;24.80;;;;;;;-1.13;88.64;100881.50;111227;242;39153;-65
2024/01/11 11:41:13;;;;;;;51.60;23.10;;;;;;;-1.11;88.56;100876.58;111244;242;38371;-66
2024/01/11 11:43:50;;;;;;;54.30;25.50;;;;;;;-1.04;88.49;100878.94;111280;242;39834;-68
2024/01/11 11:46:29;;;;;;;58.20;27.90;;;;;;;-0.96;88.62;100879.58;111235;242;39974;-66
2024/01/11 11:49:06;;;;;;;64.40;28.40;;;;;;;-0.89;88.52;100873.02;111187;242;38536;-66
2024/01/11 11:51:46;;;;;;;60.40;28.00;;;;;;;-0.83;88.45;100869.86;111169;242;172930;-66
2024/01/11 11:54:27;;;;;;;67.20;30.00;;;;;;;-0.81;88.39;100872.12;111231;242;38346;-66
2024/01/11 11:57:06;;;;;;;72.80;32.90;;;;;;;-0.81;88.19;100870.40;111231;242;38632;-66
2024/01/11 11:59:41;;;;;;;63.60;29.20;;;;;;;-0.82;88.01;100872.96;111218;242;38452;-66